Nearby METAR Reports

 

EGVO - Odiham Raf, United Kingdom
Distance from station: ESE 6mi, 10km
Updated: Thu, 19-Apr-2018 16:50 BST
Clear
Clear
 Wind from SSW
Wind: SSW 7 mph , 11 km/h
Temperature: 79°F , 26°C
Dew Point: 45°F , 7°C
Humidity: 30%
Barometer: 30.18 inHg , 1022 hPa
Summary: Clear
Visibility: greater than 7 miles , 10 km
2018/04/19 15:50 EGVO 191550Z 21006KT CAVOK 26/07 Q1022 BLU NOSIG
EGLF - Farnborough, United Kingdom
Distance from station: E 14mi, 22km
Updated: Thu, 19-Apr-2018 17:50 BST
Clear
Clear
 Wind from SW
Wind: SW 10 mph , 17 km/h
Temperature: 77°F , 25°C
Dew Point: 45°F , 7°C
Humidity: 32%
Barometer: 30.18 inHg , 1022 hPa
Summary: Clear
Visibility: greater than 7 miles , 10 km
2018/04/19 16:50 EGLF 191650Z 22009KT 190V260 CAVOK 25/07 Q1022
 
EGVP - Middle Wallop, United Kingdom
Distance from station: WSW 23mi, 36km
Updated: Thu, 19-Apr-2018 16:50 BST
Clear
Clear
 Wind from S
Wind: S 6 mph , 9 km/h
Temperature: 77°F , 25°C
Dew Point: 57°F , 14°C
Humidity: 51%
Barometer: 30.18 inHg , 1022 hPa
Summary: Clear
Visibility: greater than 7 miles , 10 km
2018/04/19 15:50 EGVP 191550Z 18005KT CAVOK 25/14 Q1022 BLU NOSIG
EGHI - Southampton Wx C, United Kingdom
Distance from station: SSW 24mi, 39km
Updated: Thu, 19-Apr-2018 17:50 BST
Clear
Clear
 Wind from S
Wind: S 8 mph , 13 km/h
Temperature: 72°F , 22°C
Dew Point: 50°F , 10°C
Humidity: 47%
Barometer: 30.21 inHg , 1023 hPa
Summary: Clear
Visibility: greater than 7 miles , 10 km
2018/04/19 16:50 EGHI 191650Z 19007KT 150V210 CAVOK 22/10 Q1023
 
EGUB - Benson Raf, United Kingdom
Distance from station: N 24mi, 39km
Updated: Thu, 19-Apr-2018 16:50 BST
Clear
Clear
 Wind from WSW
Wind: WSW 7 mph , 11 km/h
Temperature: 79°F , 26°C
Dew Point: 50°F , 10°C
Humidity: 37%
Barometer: 30.18 inHg , 1022 hPa
Summary: Clear
Visibility: greater than 7 miles , 10 km
2018/04/19 15:50 EGUB 191550Z 24006KT CAVOK 26/10 Q1022 BLU NOSIG
EGDM - Boscombe Down, United Kingdom
Distance from station: WSW 29mi, 47km
Updated: Thu, 19-Apr-2018 16:50 BST
Clear
Clear
 Wind from W
Wind: W 2 mph , 4 km/h
Temperature: 77°F , 25°C
Dew Point: 52°F , 11°C
Humidity: 42%
Barometer: 30.18 inHg , 1022 hPa
Summary: Clear
Visibility: greater than 7 miles , 10 km
2018/04/19 15:50 EGDM 191550Z 26002KT CAVOK 25/11 Q1022 BLU
 
EGLL - London/Heathrow, United Kingdom
Distance from station: ENE 31mi, 51km
Updated: Thu, 19-Apr-2018 17:50 BST
Clear
Clear
 Wind from varies
Wind: varies 3 mph , 6 km/h
Temperature: 81°F , 27°C
Dew Point: 46°F , 8°C
Humidity: 30%
Barometer: 30.18 inHg , 1022 hPa
Clouds: Clear
Visibility: 6 miles , 10 km
2018/04/19 16:50 EGLL 191650Z AUTO VRB03KT 9999 NCD 27/08 Q1022
EGWU - Northolt Raf, United Kingdom
Distance from station: NE 35mi, 56km
Updated: Thu, 19-Apr-2018 17:50 BST
Clear
Clear
 Wind from WSW
Wind: WSW 5 mph , 7 km/h
Temperature: 82°F , 28°C
Dew Point: 50°F , 10°C
Humidity: 32%
Barometer: 30.15 inHg , 1021 hPa
Summary: Clear
Visibility: greater than 7 miles , 10 km
2018/04/19 16:50 EGWU 191650Z 25004KT CAVOK 28/10 Q1021 NOSIG
 
EGVA - Fairford Raf, United Kingdom
Distance from station: NW 40mi, 65km
Updated: Thu, 19-Apr-2018 17:50 BST
Clear
Clear
 Wind from W
Wind: W 6 mph , 9 km/h
Temperature: 75°F , 24°C
Dew Point: 52°F , 11°C
Humidity: 44%
Barometer: 30.19 inHg , 1022.4 hPa
Clouds: Clear
Visibility: 6 miles , 10 km
2018/04/19 16:50 EGVA 191650Z AUTO 26005KT 9999 CLR 24/11 A3019 RMK AO2 DZB38 SLP225 RVRNO $
EGKK - London/Gatwick A, United Kingdom
Distance from station: ESE 41mi, 66km
Updated: Thu, 19-Apr-2018 17:50 BST
Clear
Clear
 Wind from SW
Wind: SW 8 mph , 13 km/h
Temperature: 77°F , 25°C
Dew Point: 52°F , 11°C
Humidity: 42%
Barometer: 30.18 inHg , 1022 hPa
Summary: Clear
Visibility: greater than 7 miles , 10 km
2018/04/19 16:50 EGKK 191650Z 23007KT CAVOK 25/11 Q1022
 
EGVN - Brize Norton Raf, United Kingdom
Distance from station: NNW 41mi, 66km
Updated: Thu, 19-Apr-2018 17:50 BST
Clear
Clear
 Wind from W
Wind: W 5 mph , 7 km/h
Temperature: 77°F , 25°C
Dew Point: 50°F , 10°C
Humidity: 39%
Barometer: 30.18 inHg , 1022 hPa
Summary: Clear
Visibility: greater than 7 miles , 10 km
2018/04/19 16:50 EGVN 191650Z 26004KT CAVOK 25/10 Q1022 NOSIG
EGKA - Shoreham-By-Sea, United Kingdom
Distance from station: SE 45mi, 73km
Updated: Thu, 19-Apr-2018 17:50 BST
Partly Cloudy
Partly Cloudy
 Wind from S
Wind: S 5 mph , 7 km/h
Temperature: 61°F , 16°C
Dew Point: 50°F , 10°C
Humidity: 68%
Barometer: 30.21 inHg , 1023 hPa
Clouds: Partly Cloudy
Visibility: 5 miles , 8 km
2018/04/19 16:50 EGKA 191650Z 18004KT 8000 NSC 16/10 Q1023
 
EGHH - Bournemouth Airp, United Kingdom
Distance from station: SW 46mi, 75km
Updated: Thu, 19-Apr-2018 17:50 BST
Clear
Clear
 Wind from S
Wind: S 6 mph , 9 km/h
Temperature: 66°F , 19°C
Dew Point: 52°F , 11°C
Humidity: 60%
Barometer: 30.21 inHg , 1023 hPa
Summary: Clear
Visibility: greater than 7 miles , 10 km
2018/04/19 16:50 EGHH 191650Z 17005KT CAVOK 19/11 Q1023
EGKB - Biggin Hill, United Kingdom
Distance from station: E 48mi, 77km
Updated: Thu, 19-Apr-2018 17:50 BST
Clear
Clear
 Wind from SSE
Wind: SSE 9 mph , 15 km/h
Temperature: 77°F , 25°C
Dew Point: 48°F , 9°C
Humidity: 36%
Barometer: 30.21 inHg , 1023 hPa
Summary: Clear
Visibility: greater than 7 miles , 10 km
2018/04/19 16:50 EGKB 191650Z 16008KT 120V190 CAVOK 25/09 Q1023

Metar display script from Saratoga-Weather.org